sensor_id;sensor_type;location;lat;lon;timestamp;P1;durP1;ratioP1;P2;durP2;ratioP2
31298;SDS011;17927;52.350;13.402;2024-03-02T00:00:05;51.92;;;30.35;;
31298;SDS011;17927;52.350;13.402;2024-03-02T00:02:42;48.65;;;29.33;;
31298;SDS011;17927;52.350;13.402;2024-03-02T00:05:13;50.08;;;29.77;;
31298;SDS011;17927;52.350;13.402;2024-03-02T00:07:41;45.17;;;27.92;;
31298;SDS011;17927;52.350;13.402;2024-03-02T00:10:08;52.22;;;29.83;;
31298;SDS011;17927;52.350;13.402;2024-03-02T00:12:38;50.70;;;29.70;;
31298;SDS011;17927;52.350;13.402;2024-03-02T00:15:05;45.90;;;29.15;;
31298;SDS011;17927;52.350;13.402;2024-03-02T00:17:42;50.25;;;30.00;;
31298;SDS011;17927;52.350;13.402;2024-03-02T00:20:08;50.90;;;31.55;;
31298;SDS011;17927;52.350;13.402;2024-03-02T00:22:35;52.60;;;30.75;;
31298;SDS011;17927;52.350;13.402;2024-03-02T00:25:02;48.25;;;30.27;;
31298;SDS011;17927;52.350;13.402;2024-03-02T00:27:28;51.30;;;30.42;;
31298;SDS011;17927;52.350;13.402;2024-03-02T00:29:53;49.83;;;29.40;;
31298;SDS011;17927;52.350;13.402;2024-03-02T00:32:19;46.95;;;29.10;;
31298;SDS011;17927;52.350;13.402;2024-03-02T00:34:44;52.83;;;30.63;;
31298;SDS011;17927;52.350;13.402;2024-03-02T00:37:09;54.97;;;29.98;;
31298;SDS011;17927;52.350;13.402;2024-03-02T00:39:36;51.13;;;30.13;;
31298;SDS011;17927;52.350;13.402;2024-03-02T00:42:02;48.88;;;29.20;;
31298;SDS011;17927;52.350;13.402;2024-03-02T00:44:27;52.30;;;32.13;;
31298;SDS011;17927;52.350;13.402;2024-03-02T00:46:55;54.08;;;29.88;;
31298;SDS011;17927;52.350;13.402;2024-03-02T00:49:22;45.50;;;29.00;;
31298;SDS011;17927;52.350;13.402;2024-03-02T00:51:49;46.63;;;28.45;;
31298;SDS011;17927;52.350;13.402;2024-03-02T00:54:25;47.07;;;28.33;;
31298;SDS011;17927;52.350;13.402;2024-03-02T00:56:52;52.45;;;29.55;;
31298;SDS011;17927;52.350;13.402;2024-03-02T00:59:20;50.78;;;30.17;;
31298;SDS011;17927;52.350;13.402;2024-03-02T01:01:47;46.85;;;29.75;;
31298;SDS011;17927;52.350;13.402;2024-03-02T01:04:13;49.22;;;30.23;;
31298;SDS011;17927;52.350;13.402;2024-03-02T01:06:39;48.83;;;29.45;;
31298;SDS011;17927;52.350;13.402;2024-03-02T01:09:04;47.30;;;29.35;;
31298;SDS011;17927;52.350;13.402;2024-03-02T01:11:29;43.63;;;28.20;;
31298;SDS011;17927;52.350;13.402;2024-03-02T01:13:55;51.42;;;27.90;;
31298;SDS011;17927;52.350;13.402;2024-03-02T01:16:20;43.70;;;26.80;;
31298;SDS011;17927;52.350;13.402;2024-03-02T01:18:45;49.47;;;29.40;;
31298;SDS011;17927;52.350;13.402;2024-03-02T01:21:11;49.10;;;29.45;;
31298;SDS011;17927;52.350;13.402;2024-03-02T01:23:36;46.80;;;29.75;;
31298;SDS011;17927;52.350;13.402;2024-03-02T01:26:02;49.50;;;29.27;;
31298;SDS011;17927;52.350;13.402;2024-03-02T01:28:28;48.88;;;29.63;;
31298;SDS011;17927;52.350;13.402;2024-03-02T01:30:53;52.33;;;29.85;;
31298;SDS011;17927;52.350;13.402;2024-03-02T01:33:19;44.72;;;27.85;;
31298;SDS011;17927;52.350;13.402;2024-03-02T01:35:45;46.55;;;29.60;;
31298;SDS011;17927;52.350;13.402;2024-03-02T01:38:10;49.00;;;27.98;;
31298;SDS011;17927;52.350;13.402;2024-03-02T01:40:36;49.75;;;30.48;;
31298;SDS011;17927;52.350;13.402;2024-03-02T01:43:03;44.72;;;28.38;;
31298;SDS011;17927;52.350;13.402;2024-03-02T01:45:29;43.20;;;27.85;;
31298;SDS011;17927;52.350;13.402;2024-03-02T01:47:54;47.78;;;27.58;;
31298;SDS011;17927;52.350;13.402;2024-03-02T01:50:26;41.25;;;27.95;;
31298;SDS011;17927;52.350;13.402;2024-03-02T01:52:57;42.80;;;28.38;;
31298;SDS011;17927;52.350;13.402;2024-03-02T01:55:23;51.58;;;28.55;;
31298;SDS011;17927;52.350;13.402;2024-03-02T01:57:49;47.50;;;30.08;;
31298;SDS011;17927;52.350;13.402;2024-03-02T02:00:15;41.95;;;26.75;;
31298;SDS011;17927;52.350;13.402;2024-03-02T02:02:41;43.95;;;27.90;;
31298;SDS011;17927;52.350;13.402;2024-03-02T02:05:06;42.88;;;27.58;;
31298;SDS011;17927;52.350;13.402;2024-03-02T02:07:32;44.03;;;27.55;;
31298;SDS011;17927;52.350;13.402;2024-03-02T02:09:58;45.83;;;27.73;;
31298;SDS011;17927;52.350;13.402;2024-03-02T02:12:23;47.20;;;28.65;;
31298;SDS011;17927;52.350;13.402;2024-03-02T02:14:49;54.95;;;31.05;;
31298;SDS011;17927;52.350;13.402;2024-03-02T02:17:15;50.88;;;29.40;;
31298;SDS011;17927;52.350;13.402;2024-03-02T02:19:41;46.83;;;28.73;;
31298;SDS011;17927;52.350;13.402;2024-03-02T02:22:06;46.17;;;29.98;;
31298;SDS011;17927;52.350;13.402;2024-03-02T02:24:31;46.25;;;28.92;;
31298;SDS011;17927;52.350;13.402;2024-03-02T02:26:56;53.00;;;30.83;;
31298;SDS011;17927;52.350;13.402;2024-03-02T02:29:22;50.22;;;29.60;;
31298;SDS011;17927;52.350;13.402;2024-03-02T02:31:47;56.65;;;32.03;;
31298;SDS011;17927;52.350;13.402;2024-03-02T02:34:13;48.38;;;29.25;;
31298;SDS011;17927;52.350;13.402;2024-03-02T02:36:39;49.17;;;29.25;;
31298;SDS011;17927;52.350;13.402;2024-03-02T02:39:05;52.33;;;30.13;;
31298;SDS011;17927;52.350;13.402;2024-03-02T02:41:34;49.38;;;30.20;;
31298;SDS011;17927;52.350;13.402;2024-03-02T02:43:59;52.47;;;30.92;;
31298;SDS011;17927;52.350;13.402;2024-03-02T02:46:24;55.75;;;31.38;;
31298;SDS011;17927;52.350;13.402;2024-03-02T02:48:49;55.83;;;32.50;;
31298;SDS011;17927;52.350;13.402;2024-03-02T02:51:16;52.55;;;31.10;;
31298;SDS011;17927;52.350;13.402;2024-03-02T02:53:41;50.30;;;31.50;;
31298;SDS011;17927;52.350;13.402;2024-03-02T02:56:07;50.85;;;31.20;;
31298;SDS011;17927;52.350;13.402;2024-03-02T02:58:32;53.05;;;32.70;;
31298;SDS011;17927;52.350;13.402;2024-03-02T03:00:57;53.88;;;31.02;;
31298;SDS011;17927;52.350;13.402;2024-03-02T03:03:22;52.95;;;32.28;;
31298;SDS011;17927;52.350;13.402;2024-03-02T03:05:48;52.17;;;31.67;;
31298;SDS011;17927;52.350;13.402;2024-03-02T03:08:13;48.35;;;31.08;;
31298;SDS011;17927;52.350;13.402;2024-03-02T03:10:39;50.35;;;30.80;;
31298;SDS011;17927;52.350;13.402;2024-03-02T03:13:05;50.15;;;30.58;;
31298;SDS011;17927;52.350;13.402;2024-03-02T03:15:32;52.20;;;32.50;;
31298;SDS011;17927;52.350;13.402;2024-03-02T03:17:59;48.35;;;31.20;;
31298;SDS011;17927;52.350;13.402;2024-03-02T03:20:25;56.08;;;31.00;;
31298;SDS011;17927;52.350;13.402;2024-03-02T03:22:50;55.13;;;32.15;;
31298;SDS011;17927;52.350;13.402;2024-03-02T03:25:15;48.50;;;32.67;;
31298;SDS011;17927;52.350;13.402;2024-03-02T03:27:40;49.05;;;31.35;;
31298;SDS011;17927;52.350;13.402;2024-03-02T03:30:06;48.30;;;31.05;;
31298;SDS011;17927;52.350;13.402;2024-03-02T03:32:32;54.58;;;31.55;;
31298;SDS011;17927;52.350;13.402;2024-03-02T03:34:57;52.63;;;31.17;;
31298;SDS011;17927;52.350;13.402;2024-03-02T03:37:22;49.47;;;31.52;;
31298;SDS011;17927;52.350;13.402;2024-03-02T03:39:49;49.08;;;30.00;;
31298;SDS011;17927;52.350;13.402;2024-03-02T03:42:14;49.28;;;29.98;;
31298;SDS011;17927;52.350;13.402;2024-03-02T03:44:39;48.22;;;30.00;;
31298;SDS011;17927;52.350;13.402;2024-03-02T03:47:06;49.25;;;31.05;;
31298;SDS011;17927;52.350;13.402;2024-03-02T03:49:31;53.60;;;31.70;;
31298;SDS011;17927;52.350;13.402;2024-03-02T03:51:57;47.72;;;29.95;;
31298;SDS011;17927;52.350;13.402;2024-03-02T03:54:22;49.03;;;32.17;;
31298;SDS011;17927;52.350;13.402;2024-03-02T03:56:47;50.50;;;30.65;;
31298;SDS011;17927;52.350;13.402;2024-03-02T03:59:12;49.10;;;30.23;;
31298;SDS011;17927;52.350;13.402;2024-03-02T04:01:38;46.40;;;30.33;;
31298;SDS011;17927;52.350;13.402;2024-03-02T04:04:03;47.15;;;30.73;;
31298;SDS011;17927;52.350;13.402;2024-03-02T04:06:28;47.55;;;30.23;;
31298;SDS011;17927;52.350;13.402;2024-03-02T04:08:54;50.28;;;30.55;;
31298;SDS011;17927;52.350;13.402;2024-03-02T04:11:19;51.53;;;31.23;;
31298;SDS011;17927;52.350;13.402;2024-03-02T04:13:44;48.40;;;30.13;;
31298;SDS011;17927;52.350;13.402;2024-03-02T04:16:09;48.17;;;29.08;;
31298;SDS011;17927;52.350;13.402;2024-03-02T04:18:35;46.97;;;27.77;;
31298;SDS011;17927;52.350;13.402;2024-03-02T04:21:00;45.40;;;28.60;;
31298;SDS011;17927;52.350;13.402;2024-03-02T04:23:26;47.22;;;29.60;;
31298;SDS011;17927;52.350;13.402;2024-03-02T04:25:51;45.28;;;28.45;;
31298;SDS011;17927;52.350;13.402;2024-03-02T04:28:16;43.47;;;27.20;;
31298;SDS011;17927;52.350;13.402;2024-03-02T04:30:42;47.00;;;28.98;;
31298;SDS011;17927;52.350;13.402;2024-03-02T04:33:07;42.28;;;28.35;;
31298;SDS011;17927;52.350;13.402;2024-03-02T04:35:34;47.45;;;28.23;;
31298;SDS011;17927;52.350;13.402;2024-03-02T04:38:00;46.22;;;28.60;;
31298;SDS011;17927;52.350;13.402;2024-03-02T04:40:25;43.97;;;27.50;;
31298;SDS011;17927;52.350;13.402;2024-03-02T04:42:50;38.00;;;25.52;;
31298;SDS011;17927;52.350;13.402;2024-03-02T04:45:16;41.80;;;26.70;;
31298;SDS011;17927;52.350;13.402;2024-03-02T04:47:41;44.30;;;26.67;;
31298;SDS011;17927;52.350;13.402;2024-03-02T04:50:07;40.78;;;26.90;;
31298;SDS011;17927;52.350;13.402;2024-03-02T04:52:32;38.50;;;26.25;;
31298;SDS011;17927;52.350;13.402;2024-03-02T04:54:57;41.50;;;26.65;;
31298;SDS011;17927;52.350;13.402;2024-03-02T04:57:34;39.70;;;27.75;;
31298;SDS011;17927;52.350;13.402;2024-03-02T05:00:00;40.28;;;25.95;;
31298;SDS011;17927;52.350;13.402;2024-03-02T05:02:25;40.47;;;27.02;;
31298;SDS011;17927;52.350;13.402;2024-03-02T05:04:50;43.50;;;28.33;;
31298;SDS011;17927;52.350;13.402;2024-03-02T05:07:16;40.80;;;26.77;;
31298;SDS011;17927;52.350;13.402;2024-03-02T05:09:41;40.25;;;27.52;;
31298;SDS011;17927;52.350;13.402;2024-03-02T05:12:07;43.80;;;27.35;;
31298;SDS011;17927;52.350;13.402;2024-03-02T05:14:51;43.83;;;27.95;;
31298;SDS011;17927;52.350;13.402;2024-03-02T05:17:16;48.08;;;30.58;;
31298;SDS011;17927;52.350;13.402;2024-03-02T05:19:41;45.58;;;29.58;;
31298;SDS011;17927;52.350;13.402;2024-03-02T05:22:06;45.88;;;29.40;;
31298;SDS011;17927;52.350;13.402;2024-03-02T05:24:32;46.38;;;30.77;;
31298;SDS011;17927;52.350;13.402;2024-03-02T05:26:57;48.00;;;30.33;;
31298;SDS011;17927;52.350;13.402;2024-03-02T05:29:22;51.65;;;29.65;;
31298;SDS011;17927;52.350;13.402;2024-03-02T05:31:48;47.92;;;29.05;;
31298;SDS011;17927;52.350;13.402;2024-03-02T05:34:13;51.45;;;31.55;;
31298;SDS011;17927;52.350;13.402;2024-03-02T05:36:39;54.17;;;35.35;;
31298;SDS011;17927;52.350;13.402;2024-03-02T05:39:05;47.10;;;31.83;;
31298;SDS011;17927;52.350;13.402;2024-03-02T05:41:33;52.25;;;29.73;;
31298;SDS011;17927;52.350;13.402;2024-03-02T05:43:59;51.08;;;31.60;;
31298;SDS011;17927;52.350;13.402;2024-03-02T05:46:24;51.63;;;31.15;;
31298;SDS011;17927;52.350;13.402;2024-03-02T05:48:49;50.08;;;31.30;;
31298;SDS011;17927;52.350;13.402;2024-03-02T05:51:15;51.72;;;31.75;;
31298;SDS011;17927;52.350;13.402;2024-03-02T05:53:40;51.95;;;31.10;;
31298;SDS011;17927;52.350;13.402;2024-03-02T05:56:05;49.60;;;31.10;;
31298;SDS011;17927;52.350;13.402;2024-03-02T05:58:31;50.35;;;31.75;;
31298;SDS011;17927;52.350;13.402;2024-03-02T06:01:08;47.75;;;29.75;;
31298;SDS011;17927;52.350;13.402;2024-03-02T06:03:33;49.20;;;31.48;;
31298;SDS011;17927;52.350;13.402;2024-03-02T06:05:59;53.83;;;32.88;;
31298;SDS011;17927;52.350;13.402;2024-03-02T06:08:24;52.17;;;33.33;;
31298;SDS011;17927;52.350;13.402;2024-03-02T06:10:49;53.45;;;31.38;;
31298;SDS011;17927;52.350;13.402;2024-03-02T06:13:15;48.28;;;30.98;;
31298;SDS011;17927;52.350;13.402;2024-03-02T06:15:40;52.90;;;32.03;;
31298;SDS011;17927;52.350;13.402;2024-03-02T06:18:05;50.00;;;30.75;;
31298;SDS011;17927;52.350;13.402;2024-03-02T06:20:32;51.22;;;32.60;;
31298;SDS011;17927;52.350;13.402;2024-03-02T06:22:57;58.45;;;34.38;;
31298;SDS011;17927;52.350;13.402;2024-03-02T06:25:23;52.22;;;32.80;;
31298;SDS011;17927;52.350;13.402;2024-03-02T06:27:48;54.20;;;32.13;;
31298;SDS011;17927;52.350;13.402;2024-03-02T06:30:13;53.60;;;32.97;;
31298;SDS011;17927;52.350;13.402;2024-03-02T06:32:38;55.92;;;33.85;;
31298;SDS011;17927;52.350;13.402;2024-03-02T06:35:04;53.00;;;33.45;;
31298;SDS011;17927;52.350;13.402;2024-03-02T06:37:30;57.40;;;33.97;;
31298;SDS011;17927;52.350;13.402;2024-03-02T06:39:56;56.85;;;34.88;;
31298;SDS011;17927;52.350;13.402;2024-03-02T06:42:21;57.50;;;33.53;;
31298;SDS011;17927;52.350;13.402;2024-03-02T06:44:46;53.03;;;33.97;;
31298;SDS011;17927;52.350;13.402;2024-03-02T06:47:11;53.72;;;33.97;;
31298;SDS011;17927;52.350;13.402;2024-03-02T06:49:36;49.88;;;32.10;;
31298;SDS011;17927;52.350;13.402;2024-03-02T06:52:02;55.60;;;34.03;;
31298;SDS011;17927;52.350;13.402;2024-03-02T06:54:27;52.10;;;32.40;;
31298;SDS011;17927;52.350;13.402;2024-03-02T06:56:52;56.10;;;33.22;;
31298;SDS011;17927;52.350;13.402;2024-03-02T06:59:18;53.30;;;31.75;;
31298;SDS011;17927;52.350;13.402;2024-03-02T07:01:43;48.70;;;31.42;;
31298;SDS011;17927;52.350;13.402;2024-03-02T07:04:08;54.83;;;33.58;;
31298;SDS011;17927;52.350;13.402;2024-03-02T07:06:34;58.33;;;33.58;;
31298;SDS011;17927;52.350;13.402;2024-03-02T07:08:59;53.50;;;33.83;;
31298;SDS011;17927;52.350;13.402;2024-03-02T07:11:24;48.05;;;30.70;;
31298;SDS011;17927;52.350;13.402;2024-03-02T07:13:49;54.17;;;33.28;;
31298;SDS011;17927;52.350;13.402;2024-03-02T07:16:15;57.90;;;33.70;;
31298;SDS011;17927;52.350;13.402;2024-03-02T07:18:46;57.70;;;34.63;;
31298;SDS011;17927;52.350;13.402;2024-03-02T07:21:16;55.53;;;33.75;;
31298;SDS011;17927;52.350;13.402;2024-03-02T07:23:41;48.03;;;30.95;;
31298;SDS011;17927;52.350;13.402;2024-03-02T07:26:07;52.95;;;32.72;;
31298;SDS011;17927;52.350;13.402;2024-03-02T07:28:32;51.30;;;32.47;;
31298;SDS011;17927;52.350;13.402;2024-03-02T07:30:58;54.88;;;32.30;;
31298;SDS011;17927;52.350;13.402;2024-03-02T07:33:24;54.05;;;33.20;;
31298;SDS011;17927;52.350;13.402;2024-03-02T07:35:49;48.72;;;31.13;;
31298;SDS011;17927;52.350;13.402;2024-03-02T07:38:14;51.67;;;33.35;;
31298;SDS011;17927;52.350;13.402;2024-03-02T07:40:39;54.20;;;32.42;;
31298;SDS011;17927;52.350;13.402;2024-03-02T07:43:05;52.75;;;32.38;;
31298;SDS011;17927;52.350;13.402;2024-03-02T07:45:30;54.97;;;33.15;;
31298;SDS011;17927;52.350;13.402;2024-03-02T07:47:55;59.70;;;32.28;;
31298;SDS011;17927;52.350;13.402;2024-03-02T07:50:21;52.63;;;30.98;;
31298;SDS011;17927;52.350;13.402;2024-03-02T07:52:46;50.40;;;33.28;;
31298;SDS011;17927;52.350;13.402;2024-03-02T07:55:11;48.70;;;30.85;;
31298;SDS011;17927;52.350;13.402;2024-03-02T07:57:36;48.90;;;30.92;;
31298;SDS011;17927;52.350;13.402;2024-03-02T08:00:02;49.33;;;31.15;;
31298;SDS011;17927;52.350;13.402;2024-03-02T08:02:27;48.50;;;29.27;;
31298;SDS011;17927;52.350;13.402;2024-03-02T08:04:53;50.58;;;30.80;;
31298;SDS011;17927;52.350;13.402;2024-03-02T08:07:18;46.95;;;29.88;;
31298;SDS011;17927;52.350;13.402;2024-03-02T08:09:43;46.58;;;30.52;;
31298;SDS011;17927;52.350;13.402;2024-03-02T08:12:09;47.00;;;29.30;;
31298;SDS011;17927;52.350;13.402;2024-03-02T08:14:34;45.80;;;29.27;;
31298;SDS011;17927;52.350;13.402;2024-03-02T08:16:59;55.60;;;31.17;;
31298;SDS011;17927;52.350;13.402;2024-03-02T08:19:26;44.55;;;29.73;;
31298;SDS011;17927;52.350;13.402;2024-03-02T08:21:51;51.15;;;30.08;;
31298;SDS011;17927;52.350;13.402;2024-03-02T08:24:17;46.28;;;29.80;;
31298;SDS011;17927;52.350;13.402;2024-03-02T08:26:42;42.42;;;28.45;;
31298;SDS011;17927;52.350;13.402;2024-03-02T08:29:07;50.58;;;30.20;;
31298;SDS011;17927;52.350;13.402;2024-03-02T08:31:32;50.38;;;29.98;;
31298;SDS011;17927;52.350;13.402;2024-03-02T08:33:58;45.28;;;30.08;;
31298;SDS011;17927;52.350;13.402;2024-03-02T08:36:24;46.17;;;29.75;;
31298;SDS011;17927;52.350;13.402;2024-03-02T08:38:49;44.97;;;29.83;;
31298;SDS011;17927;52.350;13.402;2024-03-02T08:41:15;48.45;;;29.15;;
31298;SDS011;17927;52.350;13.402;2024-03-02T08:43:41;46.45;;;28.08;;
31298;SDS011;17927;52.350;13.402;2024-03-02T08:46:07;52.25;;;30.23;;
31298;SDS011;17927;52.350;13.402;2024-03-02T08:48:32;46.97;;;29.17;;
31298;SDS011;17927;52.350;13.402;2024-03-02T08:50:57;43.97;;;28.75;;
31298;SDS011;17927;52.350;13.402;2024-03-02T08:53:23;40.47;;;26.85;;
31298;SDS011;17927;52.350;13.402;2024-03-02T08:55:48;47.88;;;28.98;;
31298;SDS011;17927;52.350;13.402;2024-03-02T08:58:14;48.17;;;27.83;;
31298;SDS011;17927;52.350;13.402;2024-03-02T09:00:39;44.53;;;25.80;;
31298;SDS011;17927;52.350;13.402;2024-03-02T09:03:05;41.78;;;26.67;;
31298;SDS011;17927;52.350;13.402;2024-03-02T09:05:30;40.60;;;25.65;;
31298;SDS011;17927;52.350;13.402;2024-03-02T09:07:55;40.17;;;25.52;;
31298;SDS011;17927;52.350;13.402;2024-03-02T09:10:20;44.22;;;26.80;;
31298;SDS011;17927;52.350;13.402;2024-03-02T09:12:46;42.38;;;26.10;;
31298;SDS011;17927;52.350;13.402;2024-03-02T09:15:11;40.03;;;25.65;;
31298;SDS011;17927;52.350;13.402;2024-03-02T09:17:36;41.78;;;25.38;;
31298;SDS011;17927;52.350;13.402;2024-03-02T09:20:02;40.00;;;25.80;;
31298;SDS011;17927;52.350;13.402;2024-03-02T09:22:29;39.72;;;26.25;;
31298;SDS011;17927;52.350;13.402;2024-03-02T09:24:54;39.88;;;24.08;;
31298;SDS011;17927;52.350;13.402;2024-03-02T09:27:20;41.40;;;25.40;;
31298;SDS011;17927;52.350;13.402;2024-03-02T09:29:45;44.08;;;26.35;;
31298;SDS011;17927;52.350;13.402;2024-03-02T09:32:12;39.10;;;25.58;;
31298;SDS011;17927;52.350;13.402;2024-03-02T09:34:38;41.00;;;25.45;;
31298;SDS011;17927;52.350;13.402;2024-03-02T09:37:04;44.78;;;23.25;;
31298;SDS011;17927;52.350;13.402;2024-03-02T09:39:29;41.65;;;25.58;;
31298;SDS011;17927;52.350;13.402;2024-03-02T09:41:54;38.25;;;23.60;;
31298;SDS011;17927;52.350;13.402;2024-03-02T09:44:20;43.53;;;25.85;;
31298;SDS011;17927;52.350;13.402;2024-03-02T09:46:50;38.65;;;24.50;;
31298;SDS011;17927;52.350;13.402;2024-03-02T09:49:16;39.05;;;24.23;;
31298;SDS011;17927;52.350;13.402;2024-03-02T09:51:44;40.05;;;25.55;;
31298;SDS011;17927;52.350;13.402;2024-03-02T09:54:12;42.40;;;24.70;;
31298;SDS011;17927;52.350;13.402;2024-03-02T09:56:38;44.05;;;24.13;;
31298;SDS011;17927;52.350;13.402;2024-03-02T09:59:03;37.72;;;24.70;;
31298;SDS011;17927;52.350;13.402;2024-03-02T10:01:29;38.40;;;24.50;;
31298;SDS011;17927;52.350;13.402;2024-03-02T10:03:55;41.78;;;23.90;;
31298;SDS011;17927;52.350;13.402;2024-03-02T10:06:24;39.40;;;23.63;;
31298;SDS011;17927;52.350;13.402;2024-03-02T10:08:51;38.05;;;24.23;;
31298;SDS011;17927;52.350;13.402;2024-03-02T10:11:33;35.92;;;23.05;;
31298;SDS011;17927;52.350;13.402;2024-03-02T10:16:37;34.97;;;23.38;;
31298;SDS011;17927;52.350;13.402;2024-03-02T10:21:48;35.05;;;23.50;;
31298;SDS011;17927;52.350;13.402;2024-03-02T10:24:17;36.58;;;23.35;;
31298;SDS011;17927;52.350;13.402;2024-03-02T10:26:43;39.53;;;23.88;;
31298;SDS011;17927;52.350;13.402;2024-03-02T10:29:09;33.38;;;22.70;;
31298;SDS011;17927;52.350;13.402;2024-03-02T10:31:36;34.92;;;23.23;;
31298;SDS011;17927;52.350;13.402;2024-03-02T10:34:03;35.60;;;22.95;;
31298;SDS011;17927;52.350;13.402;2024-03-02T10:36:28;34.60;;;23.33;;
31298;SDS011;17927;52.350;13.402;2024-03-02T10:38:55;36.90;;;24.85;;
31298;SDS011;17927;52.350;13.402;2024-03-02T10:41:23;37.60;;;22.45;;
31298;SDS011;17927;52.350;13.402;2024-03-02T10:43:49;41.00;;;23.15;;
31298;SDS011;17927;52.350;13.402;2024-03-02T10:46:18;35.03;;;23.52;;
31298;SDS011;17927;52.350;13.402;2024-03-02T10:48:45;35.78;;;22.77;;
31298;SDS011;17927;52.350;13.402;2024-03-02T10:51:11;36.47;;;23.00;;
31298;SDS011;17927;52.350;13.402;2024-03-02T10:53:36;32.00;;;22.88;;
31298;SDS011;17927;52.350;13.402;2024-03-02T10:56:02;34.50;;;22.88;;
31298;SDS011;17927;52.350;13.402;2024-03-02T10:58:32;34.13;;;21.92;;
31298;SDS011;17927;52.350;13.402;2024-03-02T11:01:02;33.30;;;22.33;;
31298;SDS011;17927;52.350;13.402;2024-03-02T11:03:29;33.30;;;21.33;;
31298;SDS011;17927;52.350;13.402;2024-03-02T11:05:58;41.08;;;22.20;;
31298;SDS011;17927;52.350;13.402;2024-03-02T11:08:25;38.97;;;22.75;;
31298;SDS011;17927;52.350;13.402;2024-03-02T11:10:57;37.63;;;21.70;;
31298;SDS011;17927;52.350;13.402;2024-03-02T11:13:31;37.55;;;22.73;;
31298;SDS011;17927;52.350;13.402;2024-03-02T11:15:59;33.03;;;21.50;;
31298;SDS011;17927;52.350;13.402;2024-03-02T11:18:30;35.13;;;22.05;;
31298;SDS011;17927;52.350;13.402;2024-03-02T11:20:57;33.47;;;22.23;;
31298;SDS011;17927;52.350;13.402;2024-03-02T11:23:33;33.50;;;21.35;;
31298;SDS011;17927;52.350;13.402;2024-03-02T11:26:17;33.03;;;21.05;;
31298;SDS011;17927;52.350;13.402;2024-03-02T11:28:46;29.75;;;20.23;;
31298;SDS011;17927;52.350;13.402;2024-03-02T11:31:12;29.15;;;19.83;;
31298;SDS011;17927;52.350;13.402;2024-03-02T11:33:37;30.33;;;20.25;;
31298;SDS011;17927;52.350;13.402;2024-03-02T11:36:02;27.05;;;18.92;;
31298;SDS011;17927;52.350;13.402;2024-03-02T11:38:29;32.72;;;19.83;;
31298;SDS011;17927;52.350;13.402;2024-03-02T11:41:07;26.08;;;18.05;;
31298;SDS011;17927;52.350;13.402;2024-03-02T11:43:39;26.23;;;17.95;;
31298;SDS011;17927;52.350;13.402;2024-03-02T11:46:06;26.85;;;18.35;;
31298;SDS011;17927;52.350;13.402;2024-03-02T11:48:32;27.08;;;19.00;;
31298;SDS011;17927;52.350;13.402;2024-03-02T11:51:00;28.75;;;18.20;;
31298;SDS011;17927;52.350;13.402;2024-03-02T11:53:27;30.50;;;17.30;;
31298;SDS011;17927;52.350;13.402;2024-03-02T11:55:55;25.45;;;17.63;;
31298;SDS011;17927;52.350;13.402;2024-03-02T11:58:20;25.63;;;17.17;;
31298;SDS011;17927;52.350;13.402;2024-03-02T12:00:52;26.05;;;17.15;;
31298;SDS011;17927;52.350;13.402;2024-03-02T12:03:18;25.67;;;16.58;;
31298;SDS011;17927;52.350;13.402;2024-03-02T12:05:52;22.80;;;16.03;;
31298;SDS011;17927;52.350;13.402;2024-03-02T12:08:18;25.20;;;16.85;;
31298;SDS011;17927;52.350;13.402;2024-03-02T12:10:55;26.40;;;16.80;;
31298;SDS011;17927;52.350;13.402;2024-03-02T12:13:24;29.65;;;19.08;;
31298;SDS011;17927;52.350;13.402;2024-03-02T12:15:52;31.15;;;19.48;;
31298;SDS011;17927;52.350;13.402;2024-03-02T12:18:20;34.55;;;19.30;;
31298;SDS011;17927;52.350;13.402;2024-03-02T12:20:45;29.77;;;19.30;;
31298;SDS011;17927;52.350;13.402;2024-03-02T12:23:10;29.23;;;19.30;;
31298;SDS011;17927;52.350;13.402;2024-03-02T12:25:35;26.42;;;18.75;;
31298;SDS011;17927;52.350;13.402;2024-03-02T12:28:01;27.40;;;18.80;;
31298;SDS011;17927;52.350;13.402;2024-03-02T12:30:27;20.88;;;15.15;;
31298;SDS011;17927;52.350;13.402;2024-03-02T12:32:54;25.48;;;17.55;;
31298;SDS011;17927;52.350;13.402;2024-03-02T12:35:19;26.65;;;18.77;;
31298;SDS011;17927;52.350;13.402;2024-03-02T12:37:49;28.05;;;18.60;;
31298;SDS011;17927;52.350;13.402;2024-03-02T12:40:16;26.67;;;18.17;;
31298;SDS011;17927;52.350;13.402;2024-03-02T12:42:43;27.40;;;18.08;;
31298;SDS011;17927;52.350;13.402;2024-03-02T12:45:09;25.35;;;17.45;;
31298;SDS011;17927;52.350;13.402;2024-03-02T12:47:35;25.75;;;17.52;;
31298;SDS011;17927;52.350;13.402;2024-03-02T12:50:01;24.27;;;15.90;;
31298;SDS011;17927;52.350;13.402;2024-03-02T12:52:27;20.17;;;13.52;;
31298;SDS011;17927;52.350;13.402;2024-03-02T12:54:52;17.92;;;13.43;;
31298;SDS011;17927;52.350;13.402;2024-03-02T12:57:20;18.98;;;13.98;;
31298;SDS011;17927;52.350;13.402;2024-03-02T12:59:46;20.08;;;13.50;;
31298;SDS011;17927;52.350;13.402;2024-03-02T13:02:17;15.65;;;12.50;;
31298;SDS011;17927;52.350;13.402;2024-03-02T13:04:43;15.82;;;11.10;;
31298;SDS011;17927;52.350;13.402;2024-03-02T13:07:08;17.33;;;12.50;;
31298;SDS011;17927;52.350;13.402;2024-03-02T13:09:35;16.48;;;12.70;;
31298;SDS011;17927;52.350;13.402;2024-03-02T13:12:01;14.43;;;10.35;;
31298;SDS011;17927;52.350;13.402;2024-03-02T13:14:26;13.88;;;10.60;;
31298;SDS011;17927;52.350;13.402;2024-03-02T13:16:51;15.77;;;11.25;;
31298;SDS011;17927;52.350;13.402;2024-03-02T13:19:17;16.42;;;10.60;;
31298;SDS011;17927;52.350;13.402;2024-03-02T13:21:44;12.75;;;10.40;;
31298;SDS011;17927;52.350;13.402;2024-03-02T13:24:09;16.58;;;11.55;;
31298;SDS011;17927;52.350;13.402;2024-03-02T13:26:34;14.90;;;11.82;;
31298;SDS011;17927;52.350;13.402;2024-03-02T13:29:00;11.43;;;9.40;;
31298;SDS011;17927;52.350;13.402;2024-03-02T13:31:25;12.20;;;10.32;;
31298;SDS011;17927;52.350;13.402;2024-03-02T13:33:51;13.80;;;10.73;;
31298;SDS011;17927;52.350;13.402;2024-03-02T13:36:16;34.47;;;25.77;;
31298;SDS011;17927;52.350;13.402;2024-03-02T13:38:42;42.97;;;28.75;;
31298;SDS011;17927;52.350;13.402;2024-03-02T13:41:07;54.78;;;35.45;;
31298;SDS011;17927;52.350;13.402;2024-03-02T13:43:32;16.80;;;12.93;;
31298;SDS011;17927;52.350;13.402;2024-03-02T13:45:59;17.20;;;12.77;;
31298;SDS011;17927;52.350;13.402;2024-03-02T13:48:25;18.80;;;12.02;;
31298;SDS011;17927;52.350;13.402;2024-03-02T13:50:52;12.32;;;9.45;;
31298;SDS011;17927;52.350;13.402;2024-03-02T13:53:18;18.27;;;12.48;;
31298;SDS011;17927;52.350;13.402;2024-03-02T13:55:44;12.20;;;10.00;;
31298;SDS011;17927;52.350;13.402;2024-03-02T13:58:10;13.90;;;11.77;;
31298;SDS011;17927;52.350;13.402;2024-03-02T14:00:35;12.48;;;9.40;;
31298;SDS011;17927;52.350;13.402;2024-03-02T14:03:02;30.40;;;18.42;;
31298;SDS011;17927;52.350;13.402;2024-03-02T14:05:28;16.17;;;10.98;;
31298;SDS011;17927;52.350;13.402;2024-03-02T14:07:53;15.55;;;10.23;;